Anandale, Louisiana
Current Conditions -  °F | °C
As of 7:53 PM on Saturday 20 Dec 2014 (Local Time) from KAEX Reporting Station
Clear Clear  
Wind Chill:   Ceiling: Unl
Heat Index:   Visibility: 10mi
Dew Point:   Wind: 3mph
Humidity: 90%   Direction: 330°NNW
Pressure: 30.17"   Gusts: NA
Location:  31.2655°N, 92.4705°W
Report Text: KAEX 210153Z 33003KT 10SM CLR 08/07 A3017 RMK AO2 SLP222 T00830067
Loading
Personal Weather Stations






























Interactive Weather Map New forecast layout! Learn more

10-Day Weather Forecast

Advertisements
Track Severe Weather on mobile